Route Details

Aircraft Information
Group: Boeing 767
Types: B762, B763
Route Data
Distance: 2085nm
Duration: 5h 00m
Origin METAR: PHNL 072353Z 05017G21KT 10SM FEW020 BKN032 BKN050 29/21 A3007 RMK AO2 SLP182 SHRA DSNT NW-N T02940217 10294 20239 58026 $
Dest. METAR: KSFO 072356Z 32005KT 10SM FEW180 SCT200 16/08 A3031 RMK AO2 SLP262 T01610078 10161 20111 58016
Freight Data
(for Feb 8, 2023)
Load Factor:
31%
Manifested Cargo: 30,799lbs
Financial History
Total Freight: 96,880lbs
Average Load: 0lbs/flt
Fuel Used: 59,516lbs
Avg. Fuel Used: 0lbs/flt
Fuel Expense: $32,734
Avg. Fuel Expense: $0
Avg. Fuel Cost: $0/lbs
Total Gross Income: $253,826
Pilot Pay: $169
Total Expenses: $49,484
Total Revenue: $170,175
Average Revenue: $0

Capitol Logistics 423




PHNL
Daniel K Inouye International Airport
Honolulu, Hawaii
KSFO
San Francisco International Airport
San Francisco, California

Activity Log

Date Flight Route Aircraft Duration
07/15/2022 CPX423 MKK4 CLUTS R465 CORTT/N0464F350 R465 CINNY PIRAT2 B763 4h 24m